Time;durP1;ratioP1;P1;durP2;ratioP2;P2;SDS_P1;SDS_P2;PMS_P1;PMS_P2;Temp;Humidity;BMP_temperature;BMP_pressure;BME280_temperature;BME280_humidity;BME280_pressure;Samples;Min_cycle;Max_cycle;Signal;HPM_P1;HPM_P2
2022/12/06 00:00:24;;;;;;;159.38;84.35;;;;;;;3.86;100.00;99712.72;5092831;28;20016;-83
2022/12/06 00:02:49;;;;;;;149.90;77.78;;;;;;;3.94;100.00;99729.75;5092795;28;20455;-83
2022/12/06 00:05:14;;;;;;;121.88;66.20;;;;;;;3.79;100.00;99700.81;5093274;28;20046;-83
2022/12/06 00:07:40;;;;;;;141.02;78.35;;;;;;;3.84;100.00;99711.91;5092661;28;20031;-83
2022/12/06 00:10:06;;;;;;;111.13;63.92;;;;;;;3.87;100.00;99717.00;5092905;28;20250;-83
2022/12/06 00:12:32;;;;;;;114.53;66.20;;;;;;;3.90;100.00;99724.66;5092608;28;20028;-83
2022/12/06 00:14:57;;;;;;;113.85;64.15;;;;;;;3.92;100.00;99720.34;5092380;28;20028;-83
2022/12/06 00:17:23;;;;;;;114.40;65.57;;;;;;;3.96;100.00;99720.28;5092512;28;20507;-83
2022/12/06 00:19:48;;;;;;;98.00;58.85;;;;;;;3.96;100.00;99717.69;5092594;28;20019;-83
2022/12/06 00:22:14;;;;;;;96.68;58.05;;;;;;;3.92;100.00;99716.03;5092776;28;20101;-83
2022/12/06 00:24:39;;;;;;;99.70;60.78;;;;;;;3.99;100.00;99730.50;5092604;28;20394;-83
2022/12/06 00:27:05;;;;;;;97.07;57.35;;;;;;;3.98;100.00;99730.53;5073215;28;20024;-83
2022/12/06 00:29:31;;;;;;;90.78;56.30;;;;;;;4.00;100.00;99745.09;5092430;28;20020;-83
2022/12/06 00:31:56;;;;;;;92.78;57.45;;;;;;;3.98;100.00;99746.84;5091941;28;20020;-83
2022/12/06 00:34:21;;;;;;;87.78;55.08;;;;;;;4.00;100.00;99751.97;5092312;28;20363;-83
2022/12/06 00:36:47;;;;;;;89.18;55.80;;;;;;;3.99;100.00;99755.41;5091901;28;20111;-83
2022/12/06 00:39:15;;;;;;;83.90;54.45;;;;;;;4.04;100.00;99763.06;5092369;28;20051;-83
2022/12/06 00:41:41;;;;;;;81.05;52.28;;;;;;;3.97;100.00;99757.19;5074071;28;20435;-83
2022/12/06 00:44:08;;;;;;;81.45;51.60;;;;;;;4.03;100.00;99775.09;5074048;28;20012;-83
2022/12/06 00:46:34;;;;;;;80.03;50.55;;;;;;;3.93;100.00;99761.53;5092186;28;20422;-83
2022/12/06 00:49:01;;;;;;;81.90;50.88;;;;;;;4.02;100.00;99776.00;5092109;28;20073;-83
2022/12/06 00:51:29;;;;;;;83.57;54.65;;;;;;;3.92;100.00;99767.59;5092565;28;20513;-83
2022/12/06 00:53:54;;;;;;;83.53;50.38;;;;;;;3.96;100.00;99765.78;5092213;28;20016;-83
2022/12/06 00:56:20;;;;;;;95.10;56.08;;;;;;;3.99;100.00;99751.13;5092115;28;20341;-83
2022/12/06 00:58:46;;;;;;;109.95;64.60;;;;;;;4.02;100.00;99747.66;5073760;28;20337;-83
2022/12/06 01:01:17;;;;;;;127.05;72.57;;;;;;;3.96;100.00;99745.16;5092206;28;20328;-83
2022/12/06 01:03:43;;;;;;;85.35;52.33;;;;;;;3.99;100.00;99755.41;5074117;28;20012;-83
2022/12/06 01:06:12;;;;;;;85.60;52.47;;;;;;;4.00;100.00;99747.69;5092264;28;20024;-83
2022/12/06 01:08:38;;;;;;;83.57;54.53;;;;;;;3.96;100.00;99732.28;5073818;28;20149;-83
2022/12/06 01:11:05;;;;;;;86.78;55.03;;;;;;;3.94;100.00;99732.31;5073444;28;20111;-83
2022/12/06 01:13:31;;;;;;;83.63;50.67;;;;;;;3.93;100.00;99725.47;5073603;28;20035;-83
2022/12/06 01:15:57;;;;;;;78.20;50.88;;;;;;;3.98;100.00;99725.38;5091693;28;20028;-83
2022/12/06 01:18:22;;;;;;;84.10;51.10;;;;;;;3.88;100.00;99698.94;5092044;28;20325;-83
2022/12/06 01:20:48;;;;;;;89.70;53.75;;;;;;;3.90;100.00;99692.03;5091775;28;20165;-83
2022/12/06 01:23:14;;;;;;;77.90;51.30;;;;;;;4.00;100.00;99703.00;5073616;28;20110;-83
2022/12/06 01:25:49;;;;;;;81.00;51.35;;;;;;;3.98;100.00;99686.72;5091756;28;20459;-83
2022/12/06 01:28:14;;;;;;;82.40;53.70;;;;;;;3.97;100.00;99688.47;5092052;28;20023;-83
2022/12/06 01:30:40;;;;;;;79.97;51.85;;;;;;;3.93;100.00;99675.66;5091856;28;20099;-83
2022/12/06 01:33:05;;;;;;;83.55;54.22;;;;;;;3.99;100.00;99680.69;5091653;28;20054;-83
2022/12/06 01:35:30;;;;;;;89.68;54.60;;;;;;;3.93;100.00;99657.63;5091681;28;20031;-83
2022/12/06 01:37:56;;;;;;;80.55;51.97;;;;;;;3.96;100.00;99663.56;5092046;28;20019;-83
2022/12/06 01:40:21;;;;;;;85.80;50.97;;;;;;;3.99;100.00;99665.22;5095662;28;20020;-83
2022/12/06 01:42:47;;;;;;;78.68;50.25;;;;;;;4.00;100.00;99654.91;5095262;28;20077;-83
2022/12/06 01:45:12;;;;;;;73.85;50.00;;;;;;;3.98;100.00;99645.50;5095483;28;20024;-83
2022/12/06 01:47:40;;;;;;;75.38;50.80;;;;;;;4.06;100.00;99651.34;5095858;28;20020;-83
2022/12/06 01:50:23;;;;;;;75.18;49.80;;;;;;;4.08;100.00;99652.16;5095334;28;20028;-83
2022/12/06 01:52:55;;;;;;;72.97;49.47;;;;;;;4.11;100.00;99651.25;5076957;28;20070;-83
2022/12/06 01:55:24;;;;;;;82.55;53.75;;;;;;;4.10;100.00;99652.13;5095311;28;20116;-83
2022/12/06 01:57:52;;;;;;;80.68;51.72;;;;;;;4.10;100.00;99644.41;5095161;28;20031;-83
2022/12/06 02:00:17;;;;;;;82.70;50.83;;;;;;;4.05;100.00;99638.50;5077116;28;20103;-83
2022/12/06 02:02:43;;;;;;;76.95;47.70;;;;;;;3.99;100.00;99624.84;5095015;28;20079;-83
2022/12/06 02:05:09;;;;;;;74.75;47.15;;;;;;;4.11;100.00;99638.38;5094979;28;20040;-83
2022/12/06 02:07:35;;;;;;;71.10;44.90;;;;;;;3.99;100.00;99608.53;5095120;28;20032;-83
2022/12/06 02:10:02;;;;;;;73.22;45.22;;;;;;;4.09;100.00;99625.53;5076571;28;20028;-83
2022/12/06 02:12:27;;;;;;;66.85;42.20;;;;;;;4.11;100.00;99621.16;5094971;28;20107;-83
2022/12/06 02:14:53;;;;;;;67.75;43.03;;;;;;;4.15;100.00;99632.28;5094732;28;20102;-83
2022/12/06 02:17:37;;;;;;;60.60;40.67;;;;;;;4.15;100.00;99633.13;5076868;28;20035;-83
2022/12/06 02:20:27;;;;;;;64.13;41.10;;;;;;;4.16;100.00;99634.81;5076383;28;20479;-83
2022/12/06 02:23:29;;;;;;;64.72;41.25;;;;;;;4.18;100.00;99645.09;5094734;28;20024;-83
2022/12/06 02:26:23;;;;;;;66.45;40.80;;;;;;;4.16;100.00;99637.38;5094455;28;20482;-83
2022/12/06 02:29:14;;;;;;;61.05;39.35;;;;;;;4.19;100.00;99649.38;5031708;28;20231;-83
2022/12/06 02:32:02;;;;;;;60.22;38.20;;;;;;;4.18;100.00;99643.38;5032159;28;20591;-83
2022/12/06 02:34:37;;;;;;;59.20;39.85;;;;;;;4.18;100.00;99638.22;5032047;28;20033;-83
2022/12/06 02:37:17;;;;;;;62.40;40.50;;;;;;;4.18;100.00;99639.94;5031757;28;20021;-83
2022/12/06 02:39:51;;;;;;;66.57;41.42;;;;;;;4.17;100.00;99633.06;5031920;28;20029;-83
2022/12/06 02:42:19;;;;;;;65.70;42.53;;;;;;;4.14;100.00;99622.84;5015503;28;20040;-83
2022/12/06 02:44:52;;;;;;;65.05;41.60;;;;;;;4.11;100.00;99607.44;5031735;28;20038;-83
2022/12/06 02:47:21;;;;;;;68.18;41.97;;;;;;;4.12;100.00;99602.25;5015161;28;20405;-83
2022/12/06 02:49:53;;;;;;;68.10;43.42;;;;;;;4.11;100.00;99597.13;5031086;28;20041;-83
2022/12/06 02:52:23;;;;;;;62.83;43.20;;;;;;;4.16;100.00;99610.75;5031452;28;20075;-83
2022/12/06 02:54:51;;;;;;;65.78;41.05;;;;;;;4.09;100.00;99602.31;5014930;28;20034;-83
2022/12/06 02:57:19;;;;;;;75.68;46.65;;;;;;;4.18;100.00;99606.44;5031579;28;20108;-83
2022/12/06 02:59:53;;;;;;;65.20;41.83;;;;;;;4.21;100.00;99599.50;5044198;28;20426;-83
2022/12/06 03:02:20;;;;;;;72.35;43.92;;;;;;;4.11;100.00;99574.78;5094154;28;20097;-83
2022/12/06 03:05:23;;;;;;;66.55;43.45;;;;;;;4.15;100.00;99575.56;5094128;28;20555;-83
2022/12/06 03:07:49;;;;;;;66.10;41.22;;;;;;;4.19;100.00;99583.19;5093955;28;20020;-83
2022/12/06 03:10:39;;;;;;;65.38;41.55;;;;;;;4.19;100.00;99584.91;5075433;28;20491;-83
2022/12/06 03:13:13;;;;;;;64.05;39.13;;;;;;;4.18;100.00;99586.66;5093754;28;20031;-83
2022/12/06 03:15:58;;;;;;;62.38;40.45;;;;;;;4.16;100.00;99588.41;5075675;28;20039;-83
2022/12/06 03:18:34;;;;;;;58.13;37.55;;;;;;;4.14;100.00;99586.75;5093696;28;20023;-83
2022/12/06 03:21:18;;;;;;;59.65;38.70;;;;;;;4.21;100.00;99594.34;5093875;28;20020;-83
2022/12/06 03:23:48;;;;;;;57.53;37.15;;;;;;;4.12;100.00;99581.63;5093712;28;20015;-83
2022/12/06 03:26:17;;;;;;;60.97;39.20;;;;;;;4.12;100.00;99576.47;5075261;28;20482;-83
2022/12/06 03:28:45;;;;;;;66.60;39.92;;;;;;;4.19;100.00;99585.78;5093669;28;20016;-83
2022/12/06 03:31:12;;;;;;;60.85;40.15;;;;;;;4.15;100.00;99575.56;5093268;28;20019;-83
2022/12/06 03:33:45;;;;;;;59.40;39.55;;;;;;;4.22;100.00;99579.72;5093946;28;20024;-83
2022/12/06 03:36:13;;;;;;;59.50;38.78;;;;;;;4.14;100.00;99568.72;5075022;28;20020;-83
2022/12/06 03:38:54;;;;;;;61.65;40.15;;;;;;;4.20;100.00;99577.16;5093758;28;20100;-83
2022/12/06 03:41:25;;;;;;;60.42;39.08;;;;;;;4.16;100.00;99566.94;5075092;28;20034;-83
2022/12/06 03:43:50;;;;;;;;;;;;;;;4.24;100.00;99583.09;5093911;28;20359;-83
2022/12/06 03:46:37;;;;;;;60.95;38.30;;;;;;;4.20;100.00;99573.72;5093149;28;19996;-83
2022/12/06 03:49:19;;;;;;;64.53;39.85;;;;;;;4.22;100.00;99565.09;5093253;28;20028;-83
2022/12/06 03:51:45;;;;;;;58.40;37.08;;;;;;;4.18;100.00;99562.63;5092927;28;20016;-83
2022/12/06 03:54:11;;;;;;;57.97;37.60;;;;;;;4.20;100.00;99572.00;5092956;28;20050;-83
2022/12/06 03:56:37;;;;;;;61.55;38.28;;;;;;;4.20;100.00;99571.16;5093165;28;20056;-83
2022/12/06 03:59:08;;;;;;;55.05;36.97;;;;;;;4.18;100.00;99570.34;5074611;28;20020;-83
2022/12/06 04:01:33;;;;;;;54.25;36.00;;;;;;;4.14;100.00;99566.97;5092840;28;20039;-83
2022/12/06 04:03:59;;;;;;;59.45;37.83;;;;;;;4.14;100.00;99561.81;5092599;28;20036;-83
2022/12/06 04:06:26;;;;;;;57.55;38.20;;;;;;;4.14;100.00;99556.66;5074485;28;20032;-83
2022/12/06 04:08:51;;;;;;;58.42;38.42;;;;;;;4.17;100.00;99553.16;5092927;28;20081;-83
2022/12/06 04:11:16;;;;;;;63.45;41.42;;;;;;;4.20;100.00;99564.25;5092400;28;20024;-83
2022/12/06 04:13:42;;;;;;;59.67;37.80;;;;;;;4.12;100.00;99552.41;5092755;28;20023;-83
2022/12/06 04:18:09;;;;;;;58.00;38.83;;;;;;;4.14;100.00;99556.66;5073990;28;20020;-83
2022/12/06 04:18:54;;;;;;;62.22;40.95;;;;;;;4.14;100.00;99559.25;5092455;28;20035;-83
2022/12/06 04:24:07;;;;;;;63.72;40.53;;;;;;;4.17;100.00;99572.09;5010068;28;20018;-83
2022/12/06 04:26:32;;;;;;;65.90;42.53;;;;;;;4.13;100.00;99562.72;5010300;28;20082;-83
2022/12/06 04:39:54;;;;;;;75.80;44.22;;;;;;;4.03;100.00;99550.06;5010404;28;20092;-84
2022/12/06 04:45:05;;;;;;;65.53;41.50;;;;;;;4.11;100.00;99561.88;5010174;28;20064;-84
2022/12/06 04:47:30;;;;;;;73.85;45.13;;;;;;;4.12;100.00;99555.84;4993018;28;20042;-84
2022/12/06 04:49:56;;;;;;;67.47;41.92;;;;;;;4.15;100.00;99562.66;5009963;28;20022;-85
2022/12/06 04:52:21;;;;;;;64.30;41.13;;;;;;;4.15;100.00;99562.66;5009610;28;20454;-84
2022/12/06 04:54:47;;;;;;;59.50;39.72;;;;;;;4.14;100.00;99558.41;5009910;28;20121;-84
2022/12/06 04:57:14;;;;;;;61.20;38.38;;;;;;;4.15;100.00;99558.34;5009476;28;20029;-84
2022/12/06 04:59:42;;;;;;;66.78;37.60;;;;;;;4.03;100.00;99542.31;5009793;28;20103;-84
2022/12/06 05:02:11;;;;;;;62.30;37.20;;;;;;;4.05;100.00;99546.56;5084304;28;20051;-84
2022/12/06 05:04:36;;;;;;;57.80;37.83;;;;;;;4.13;100.00;99556.69;5091978;28;20052;-84
2022/12/06 05:07:02;;;;;;;57.97;35.90;;;;;;;4.08;100.00;99546.47;5073525;28;20070;-84
2022/12/06 05:09:27;;;;;;;53.17;34.60;;;;;;;4.12;100.00;99555.00;5092166;28;20085;-84
2022/12/06 05:11:53;;;;;;;52.45;33.33;;;;;;;4.07;100.00;99546.53;5092071;28;20421;-84
2022/12/06 05:14:18;;;;;;;55.08;34.97;;;;;;;4.05;100.00;99543.16;5094851;28;20356;-84
2022/12/06 05:16:44;;;;;;;47.63;32.15;;;;;;;4.10;100.00;99549.03;5096129;28;20028;-84
2022/12/06 05:19:11;;;;;;;51.47;32.65;;;;;;;4.07;100.00;99542.22;5077499;28;20074;-84
2022/12/06 05:21:37;;;;;;;50.35;32.60;;;;;;;4.14;100.00;99546.34;5095957;28;20035;-84
2022/12/06 05:24:02;;;;;;;50.22;31.98;;;;;;;4.09;100.00;99535.31;5077723;28;20455;-85
2022/12/06 05:26:27;;;;;;;48.58;30.85;;;;;;;4.10;100.00;99543.88;5096070;28;20020;-84
2022/12/06 05:28:53;;;;;;;49.78;31.40;;;;;;;3.97;100.00;99520.97;5095929;28;20475;-85
2022/12/06 05:31:19;;;;;;;47.95;31.35;;;;;;;4.07;100.00;99536.22;5095452;28;20023;-84
2022/12/06 05:33:46;;;;;;;48.53;30.90;;;;;;;3.99;100.00;99521.75;5077544;28;20482;-85
2022/12/06 05:36:14;;;;;;;52.00;34.15;;;;;;;4.00;100.00;99528.63;5095605;28;20032;-84
2022/12/06 05:38:39;;;;;;;48.15;31.83;;;;;;;4.02;100.00;99530.31;5095753;28;20027;-85
2022/12/06 05:41:06;;;;;;;48.55;31.77;;;;;;;4.03;100.00;99535.44;5095543;28;20028;-84
2022/12/06 05:43:32;;;;;;;48.40;32.55;;;;;;;3.96;100.00;99519.28;5077340;28;20406;-84
2022/12/06 05:45:57;;;;;;;45.35;30.02;;;;;;;4.04;100.00;99534.53;5095543;28;20463;-84
2022/12/06 05:48:23;;;;;;;43.67;30.63;;;;;;;3.93;100.00;99508.19;5095157;28;20016;-84
2022/12/06 05:50:49;;;;;;;46.05;30.83;;;;;;;4.03;100.00;99521.69;5095482;28;20020;-84
2022/12/06 05:53:15;;;;;;;43.50;28.00;;;;;;;3.95;100.00;99506.41;5095584;28;20028;-84
2022/12/06 05:55:41;;;;;;;42.22;27.50;;;;;;;3.93;100.00;99503.03;5095455;28;20077;-84
2022/12/06 05:58:07;;;;;;;42.65;26.13;;;;;;;3.89;100.00;99499.66;5077015;28;20027;-84
2022/12/06 06:00:33;;;;;;;37.42;24.40;;;;;;;3.97;100.00;99514.97;5077027;28;20398;-84
2022/12/06 06:02:58;;;;;;;39.10;25.73;;;;;;;3.89;100.00;99503.97;5094875;28;20040;-84
2022/12/06 06:05:24;;;;;;;41.45;26.63;;;;;;;3.93;100.00;99511.59;5095152;28;20093;-84
2022/12/06 06:07:49;;;;;;;37.05;26.20;;;;;;;3.91;100.00;99510.78;5095350;28;20086;-84
2022/12/06 06:10:15;;;;;;;36.50;25.27;;;;;;;3.88;100.00;99510.00;5094831;28;20438;-84
2022/12/06 06:12:42;;;;;;;37.17;24.58;;;;;;;3.91;100.00;99515.91;5076984;28;20024;-84
2022/12/06 06:15:08;;;;;;;31.75;23.48;;;;;;;3.90;100.00;99513.38;5076607;28;20513;-84
2022/12/06 06:17:34;;;;;;;35.00;23.75;;;;;;;3.85;100.00;99505.75;5094809;28;20016;-84
2022/12/06 06:20:04;;;;;;;37.70;23.90;;;;;;;3.87;100.00;99510.88;5076899;28;20022;-84
2022/12/06 06:22:36;;;;;;;37.67;24.02;;;;;;;3.85;100.00;99510.06;5094995;28;20027;-84
2022/12/06 06:25:03;;;;;;;37.17;23.85;;;;;;;3.88;100.00;99517.75;5093339;28;20493;-84
2022/12/06 06:27:31;;;;;;;38.05;23.88;;;;;;;3.87;100.00;99519.44;5094488;28;20482;-84
2022/12/06 06:29:57;;;;;;;36.50;23.98;;;;;;;3.84;100.00;99516.97;5094723;28;20030;-84
2022/12/06 06:32:22;;;;;;;40.92;25.90;;;;;;;3.87;100.00;99524.59;5094257;28;20430;-84
2022/12/06 06:34:47;;;;;;;39.28;24.73;;;;;;;3.85;100.00;99525.53;5094798;28;20026;-84
2022/12/06 06:37:13;;;;;;;36.15;25.00;;;;;;;3.87;100.00;99522.03;5076159;28;20066;-84
2022/12/06 06:39:38;;;;;;;36.88;23.70;;;;;;;3.86;100.00;99524.63;5094637;28;20024;-84
2022/12/06 06:42:03;;;;;;;37.80;25.85;;;;;;;3.86;100.00;99520.34;5094604;28;20597;-84
2022/12/06 06:44:29;;;;;;;37.05;24.23;;;;;;;3.86;100.00;99535.78;5076089;28;20417;-84
2022/12/06 06:46:54;;;;;;;35.40;24.88;;;;;;;3.78;100.00;99517.06;5076059;28;20070;-84
2022/12/06 06:49:19;;;;;;;35.55;24.17;;;;;;;3.83;100.00;99533.28;5094283;28;20065;-84
2022/12/06 06:51:45;;;;;;;34.17;23.02;;;;;;;3.74;100.00;99521.44;5094298;28;20107;-84
2022/12/06 06:54:11;;;;;;;34.05;23.02;;;;;;;3.80;100.00;99532.50;5094079;28;20016;-84
2022/12/06 06:56:36;;;;;;;32.85;23.00;;;;;;;3.79;100.00;99534.22;5076123;28;20020;-84
2022/12/06 06:59:02;;;;;;;33.53;21.98;;;;;;;3.69;100.00;99520.69;5094185;28;20482;-84
2022/12/06 07:01:28;;;;;;;37.70;23.20;;;;;;;3.77;100.00;99530.00;5093781;28;20127;-85
2022/12/06 07:03:53;;;;;;;35.10;22.95;;;;;;;3.78;100.00;99529.94;5076077;28;20043;-84
2022/12/06 07:06:19;;;;;;;33.67;22.50;;;;;;;3.70;100.00;99532.69;5093927;28;20035;-84
2022/12/06 07:08:48;;;;;;;31.83;21.95;;;;;;;3.72;100.00;99527.50;5094073;28;20024;-84
2022/12/06 07:11:14;;;;;;;27.25;19.80;;;;;;;3.77;100.00;99538.56;5075672;28;20020;-84
2022/12/06 07:13:41;;;;;;;28.65;20.15;;;;;;;3.73;100.00;99532.63;5075804;28;20065;-84
2022/12/06 07:16:11;;;;;;;25.88;18.20;;;;;;;3.74;100.00;99521.44;5093639;28;20452;-85
2022/12/06 07:18:37;;;;;;;23.43;17.50;;;;;;;3.73;100.00;99524.91;5094252;28;20024;-84
2022/12/06 07:21:07;;;;;;;21.73;16.08;;;;;;;3.71;100.00;99528.41;5093879;28;20310;-85
2022/12/06 07:23:34;;;;;;;18.48;14.20;;;;;;;3.65;100.00;99519.06;5075572;28;20032;-84
2022/12/06 07:26:01;;;;;;;17.02;14.18;;;;;;;3.66;100.00;99520.75;5093750;28;20024;-85
2022/12/06 07:28:27;;;;;;;21.25;15.15;;;;;;;3.59;100.00;99518.34;5093238;28;20024;-84
2022/12/06 07:30:52;;;;;;;20.70;15.23;;;;;;;3.62;100.00;99519.09;5093634;28;20027;-84
2022/12/06 07:33:17;;;;;;;20.90;16.60;;;;;;;3.59;100.00;99521.78;5093439;28;20111;-85
2022/12/06 07:35:43;;;;;;;24.65;16.40;;;;;;;3.58;100.00;99508.91;5093348;28;20482;-85
2022/12/06 07:38:08;;;;;;;26.38;16.42;;;;;;;3.59;100.00;99520.94;5075090;28;20055;-85
2022/12/06 07:40:33;;;;;;;25.75;16.15;;;;;;;3.57;100.00;99533.81;5075126;28;20107;-84
2022/12/06 07:45:43;;;;;;;18.60;12.82;;;;;;;3.51;100.00;99513.34;5093561;28;20031;-85
2022/12/06 07:48:10;;;;;;;20.98;14.68;;;;;;;3.50;100.00;99514.22;5075203;28;20023;-85
2022/12/06 07:50:35;;;;;;;19.67;12.73;;;;;;;3.58;100.00;99526.94;5075047;28;20371;-84
2022/12/06 07:53:00;;;;;;;19.42;13.50;;;;;;;3.52;100.00;99517.59;5093206;28;20032;-85
2022/12/06 07:55:26;;;;;;;17.40;12.50;;;;;;;3.42;100.00;99508.38;5092859;28;20016;-85
2022/12/06 07:57:51;;;;;;;15.10;11.38;;;;;;;3.42;100.00;99508.38;5074732;28;20039;-84
2022/12/06 08:00:17;;;;;;;14.85;10.77;;;;;;;3.46;100.00;99512.59;5092858;28;20020;-84
2022/12/06 08:02:43;;;;;;;14.80;9.98;;;;;;;3.39;100.00;99511.84;5093011;28;20054;-85
2022/12/06 08:05:09;;;;;;;11.57;9.75;;;;;;;3.42;100.00;99513.53;5092988;28;20046;-85
2022/12/06 08:07:34;;;;;;;13.23;10.23;;;;;;;3.42;100.00;99509.22;5074497;28;20020;-85
2022/12/06 08:10:00;;;;;;;12.85;10.65;;;;;;;3.41;100.00;99515.28;5074651;28;20027;-83
2022/12/06 08:12:29;;;;;;;12.43;10.07;;;;;;;3.36;100.00;99511.91;5092406;28;20020;-82
2022/12/06 08:14:55;;;;;;;12.98;10.35;;;;;;;3.41;100.00;99516.97;5092931;28;20020;-82
2022/12/06 08:17:20;;;;;;;13.75;10.88;;;;;;;3.41;100.00;99510.13;5092612;28;20030;-82
2022/12/06 08:19:45;;;;;;;16.77;11.75;;;;;;;3.43;100.00;99510.91;5092779;28;20024;-82
2022/12/06 08:22:11;;;;;;;14.50;11.68;;;;;;;3.41;100.00;99516.97;5092727;28;20028;-82
2022/12/06 08:24:36;;;;;;;16.88;13.27;;;;;;;3.40;100.00;99500.69;5074360;28;20051;-84
2022/12/06 08:27:01;;;;;;;18.20;13.80;;;;;;;3.41;100.00;99509.25;5092525;28;20077;-85
2022/12/06 08:29:27;;;;;;;16.63;13.10;;;;;;;3.38;100.00;99506.75;5092425;28;20023;-82
2022/12/06 08:31:52;;;;;;;17.95;13.25;;;;;;;3.38;100.00;99505.03;5092668;28;20088;-83
2022/12/06 08:34:17;;;;;;;19.85;14.88;;;;;;;3.43;100.00;99510.91;5074019;28;20020;-82
2022/12/06 08:36:43;;;;;;;20.45;14.95;;;;;;;3.40;100.00;99499.81;5092270;28;20035;-85
2022/12/06 08:39:10;;;;;;;17.92;14.45;;;;;;;3.42;100.00;99504.09;5092531;28;20367;-85
2022/12/06 08:41:54;;;;;;;24.55;15.55;;;;;;;3.42;100.00;99506.66;5092307;28;20107;-85
2022/12/06 08:44:20;;;;;;;25.02;16.05;;;;;;;3.40;100.00;99499.81;5092165;28;20474;-85
2022/12/06 08:46:46;;;;;;;22.52;14.60;;;;;;;3.46;100.00;99515.16;5092325;28;20027;-85
2022/12/06 08:49:13;;;;;;;19.52;13.63;;;;;;;3.38;100.00;99517.91;5072448;28;20360;-85
2022/12/06 08:51:39;;;;;;;20.85;14.15;;;;;;;3.42;100.00;99516.13;5091216;28;20024;-85
2022/12/06 08:54:06;;;;;;;18.83;13.63;;;;;;;3.36;100.00;99501.63;5072446;28;20516;-85
2022/12/06 08:56:32;;;;;;;19.67;14.68;;;;;;;3.44;100.00;99510.03;5090562;28;20020;-85
2022/12/06 08:58:57;;;;;;;22.20;15.68;;;;;;;3.46;100.00;99503.16;5092219;28;20110;-85
2022/12/06 09:01:31;;;;;;;28.30;19.45;;;;;;;3.48;100.00;99501.38;5091890;28;20040;-85
2022/12/06 09:04:01;;;;;;;36.15;26.13;;;;;;;3.45;100.00;99495.44;5092132;28;20119;-85
2022/12/06 09:06:27;;;;;;;39.85;31.70;;;;;;;3.46;100.00;99492.84;5073249;28;20039;-85
2022/12/06 09:08:52;;;;;;;24.10;19.52;;;;;;;3.51;100.00;99492.75;5092033;28;20421;-85
2022/12/06 09:11:18;;;;;;;22.48;17.95;;;;;;;3.55;100.00;99502.09;5091637;28;20027;-85
2022/12/06 09:13:44;;;;;;;24.35;21.05;;;;;;;3.57;100.00;99508.06;5091880;28;20024;-85
2022/12/06 09:16:22;;;;;;;23.30;18.05;;;;;;;3.56;100.00;99498.66;5091825;28;20463;-85
2022/12/06 09:18:48;;;;;;;18.35;14.70;;;;;;;3.56;100.00;99501.22;5091683;28;20020;-85
2022/12/06 09:21:19;;;;;;;27.45;22.10;;;;;;;3.53;100.00;99490.97;5073758;28;20038;-85
2022/12/06 09:23:45;;;;;;;18.20;15.27;;;;;;;3.55;100.00;99484.09;5073878;28;20050;-85
2022/12/06 09:26:10;;;;;;;16.95;14.07;;;;;;;3.49;100.00;99477.31;5092060;28;20059;-82
2022/12/06 09:28:38;;;;;;;17.02;14.20;;;;;;;3.49;100.00;99477.31;5090951;28;20020;-83
2022/12/06 09:31:06;;;;;;;19.42;14.93;;;;;;;3.48;100.00;99472.19;5091787;28;20065;-82
2022/12/06 09:33:31;;;;;;;19.98;13.88;;;;;;;3.41;100.00;99468.94;5091581;28;20020;-82
2022/12/06 09:36:00;;;;;;;17.33;14.25;;;;;;;3.44;100.00;99486.03;5091771;28;20111;-82
2022/12/06 09:38:27;;;;;;;15.85;11.88;;;;;;;3.41;100.00;99486.94;5091437;28;20133;-82
2022/12/06 09:41:05;;;;;;;16.42;13.98;;;;;;;3.42;100.00;99493.78;5091936;28;20019;-83
2022/12/06 09:43:30;;;;;;;20.60;17.42;;;;;;;3.40;100.00;99498.09;5091450;28;20416;-82
2022/12/06 09:46:20;;;;;;;17.73;15.82;;;;;;;3.41;100.00;99488.66;5091639;28;20106;-82
2022/12/06 09:48:45;;;;;;;17.30;14.38;;;;;;;3.39;100.00;99490.41;5091658;28;20020;-82
2022/12/06 09:51:40;;;;;;;16.27;12.68;;;;;;;3.29;100.00;99474.31;5091602;28;20362;-82
2022/12/06 09:54:19;;;;;;;14.73;11.93;;;;;;;3.34;100.00;99479.38;5091990;28;20024;-82
2022/12/06 09:56:53;;;;;;;16.05;12.35;;;;;;;3.30;100.00;99470.00;5073631;28;20020;-82
2022/12/06 09:59:41;;;;;;;16.90;13.68;;;;;;;3.31;100.00;99474.28;5092906;28;20028;-83
2022/12/06 10:02:35;;;;;;;15.60;13.32;;;;;;;3.34;100.00;99474.22;5095377;28;20472;-83
2022/12/06 10:05:25;;;;;;;18.17;14.18;;;;;;;3.35;100.00;99469.03;5095743;28;20026;-82
2022/12/06 10:08:02;;;;;;;23.48;18.30;;;;;;;3.37;100.00;99469.00;5095346;28;20054;-83
2022/12/06 10:10:52;;;;;;;32.25;20.88;;;;;;;3.33;100.00;99452.78;5076591;28;20023;-82
2022/12/06 10:13:29;;;;;;;33.25;23.70;;;;;;;3.35;100.00;99456.16;5095006;28;20025;-82
2022/12/06 10:16:20;;;;;;;25.27;19.08;;;;;;;3.30;100.00;99449.41;5095134;28;20085;-82
2022/12/06 10:19:09;;;;;;;19.40;14.75;;;;;;;3.38;100.00;99476.69;5076977;28;20023;-82
2022/12/06 10:22:08;;;;;;;19.85;15.80;;;;;;;3.36;100.00;99464.72;5094060;28;20040;-82
2022/12/06 10:24:47;;;;;;;20.65;17.00;;;;;;;3.33;100.00;99465.66;5076581;28;20024;-82
2022/12/06 10:27:28;;;;;;;16.40;14.07;;;;;;;3.31;100.00;99448.53;5076622;28;20027;-85
2022/12/06 10:30:01;;;;;;;15.48;13.40;;;;;;;3.33;100.00;99441.63;5094670;28;20016;-85
2022/12/06 10:32:37;;;;;;;17.10;13.02;;;;;;;3.37;100.00;99446.69;5076234;28;20299;-85
2022/12/06 10:35:38;;;;;;;15.05;12.95;;;;;;;3.34;100.00;99439.03;5094794;28;20035;-85
2022/12/06 10:38:15;;;;;;;;;;;;;;;3.42;100.00;99444.03;5094920;28;20028;-85
2022/12/06 10:40:50;;;;;;;12.93;10.70;;;;;;;3.41;100.00;99443.19;5094476;28;19948;-85
2022/12/06 10:43:43;;;;;;;12.02;10.70;;;;;;;3.45;100.00;99441.38;5076520;28;20016;-85
2022/12/06 10:49:13;;;;;;;14.80;11.43;;;;;;;3.55;100.00;99434.31;5094748;28;20089;-82
2022/12/06 10:51:44;;;;;;;13.18;10.65;;;;;;;3.55;100.00;99437.72;5051288;28;20049;-82
2022/12/06 10:54:18;;;;;;;12.18;10.45;;;;;;;3.52;100.00;99427.50;5051976;28;20519;-82
2022/12/06 10:56:50;;;;;;;21.98;14.00;;;;;;;3.52;100.00;99432.63;5034550;28;20116;-82
2022/12/06 10:59:34;;;;;;;16.20;12.88;;;;;;;3.55;100.00;99429.16;5051534;28;20083;-82
2022/12/06 11:02:14;;;;;;;17.70;12.45;;;;;;;3.50;100.00;99430.09;5034538;28;20122;-82
2022/12/06 11:04:42;;;;;;;16.42;13.00;;;;;;;3.46;100.00;99422.47;5051581;28;20162;-82
2022/12/06 11:07:16;;;;;;;19.23;13.48;;;;;;;3.52;100.00;99430.06;5051405;28;20037;-82
2022/12/06 11:09:45;;;;;;;13.80;12.35;;;;;;;3.47;100.00;99429.31;5051088;28;20407;-82
2022/12/06 11:12:35;;;;;;;12.85;10.93;;;;;;;3.49;100.00;99422.41;5033742;28;20033;-82
2022/12/06 11:15:19;;;;;;;16.92;13.30;;;;;;;3.45;100.00;99407.88;4972927;28;20057;-82
2022/12/06 11:17:54;;;;;;;21.25;16.08;;;;;;;3.43;100.00;99397.63;4956059;28;20403;-82
2022/12/06 11:20:22;;;;;;;15.52;12.07;;;;;;;3.49;100.00;99409.53;4972397;28;20030;-82
2022/12/06 11:23:07;;;;;;;18.15;13.48;;;;;;;3.48;100.00;99415.56;4977916;28;20488;-82
2022/12/06 11:25:42;;;;;;;19.08;14.05;;;;;;;3.38;100.00;99402.03;5011138;28;20417;-82
2022/12/06 11:28:10;;;;;;;19.55;14.63;;;;;;;3.42;100.00;99415.72;4994874;28;20029;-82
2022/12/06 11:30:35;;;;;;;22.30;16.80;;;;;;;3.37;100.00;99402.94;5011076;28;20349;-82
2022/12/06 11:33:02;;;;;;;16.80;13.23;;;;;;;3.24;100.00;99393.75;5011152;28;20049;-84
2022/12/06 11:35:27;;;;;;;15.93;13.32;;;;;;;3.24;100.00;99399.78;5010936;28;20030;-85
2022/12/06 11:38:00;;;;;;;14.18;12.73;;;;;;;3.29;100.00;99404.81;5010991;28;20080;-85
2022/12/06 11:40:41;;;;;;;13.15;11.38;;;;;;;3.28;100.00;99392.81;5010834;28;20067;-85
2022/12/06 11:43:12;;;;;;;14.10;12.50;;;;;;;3.32;100.00;99389.28;4994695;28;20320;-85
2022/12/06 11:45:40;;;;;;;12.77;10.80;;;;;;;3.33;100.00;99378.13;5010769;28;20358;-85
2022/12/06 11:48:20;;;;;;;14.07;12.18;;;;;;;3.36;100.00;99365.19;5011009;28;20030;-85
2022/12/06 11:50:47;;;;;;;16.63;13.20;;;;;;;3.38;100.00;99367.75;5010498;28;20076;-85